Beech Bluff, Tennessee
Current Conditions -  °F | °C
As of 7:53 AM on Monday 22 Dec 2014 (Local Time) from KMKL Reporting Station
Overcast Overcast  
Wind Chill: 50°   Ceiling: 800
Heat Index: 50°   Visibility: 10mi
Dew Point: 47°   Wind: 10mph
Humidity: 89%   Direction: 160°SSE
Pressure: 29.84"   Gusts: 17mph
Location:  35.6°N, 88.63°W
Report Text: KMKL 221353Z 16009G15KT 120V180 10SM OVC008 10/08 A2984 RMK AO2 SLP105 T01000083
Loading
Personal Weather Stations






























Interactive Weather Map New forecast layout! Learn more

10-Day Weather Forecast

Advertisements
Track Severe Weather on mobile